Time;durP1;ratioP1;P1;durP2;ratioP2;P2;SDS_P1;SDS_P2;PMS_P1;PMS_P2;Temp;Humidity;BMP_temperature;BMP_pressure;BME280_temperature;BME280_humidity;BME280_pressure;Samples;Min_cycle;Max_cycle;Signal;HPM_P1;HPM_P2
2022/06/12 00:00:16;;;;;;;6.22;5.80;;;18.20;99.90;;;;;;4963144;28;20745;-69
2022/06/12 00:02:43;;;;;;;7.00;6.30;;;18.10;99.90;;;;;;4969671;28;20193;-68
2022/06/12 00:05:10;;;;;;;6.88;6.28;;;18.00;99.90;;;;;;4971502;28;20278;-68
2022/06/12 00:07:36;;;;;;;7.40;6.70;;;18.00;99.90;;;;;;4971131;28;20184;-69
2022/06/12 00:10:01;;;;;;;5.97;5.47;;;17.90;99.90;;;;;;4963667;28;20708;-68
2022/06/12 00:12:27;;;;;;;6.73;6.20;;;17.90;99.90;;;;;;4972034;28;20187;-68
2022/06/12 00:14:55;;;;;;;5.87;5.37;;;17.80;99.90;;;;;;4971325;28;20641;-69
2022/06/12 00:17:21;;;;;;;7.65;6.82;;;17.60;99.90;;;;;;4968421;28;20266;-68
2022/06/12 00:19:49;;;;;;;6.60;5.80;;;17.70;99.90;;;;;;4959749;28;20475;-68
2022/06/12 00:22:15;;;;;;;6.90;6.22;;;17.80;99.90;;;;;;4970057;28;20184;-69
2022/06/12 00:24:41;;;;;;;7.38;6.78;;;17.80;99.90;;;;;;4971349;28;20188;-69
2022/06/12 00:27:07;;;;;;;6.03;5.53;;;17.70;99.90;;;;;;4972186;28;20184;-69
2022/06/12 00:29:35;;;;;;;6.37;5.87;;;17.60;99.90;;;;;;4971226;28;20236;-69
2022/06/12 00:32:05;;;;;;;5.97;5.45;;;17.80;99.90;;;;;;4968425;28;20667;-68
2022/06/12 00:34:35;;;;;;;7.25;6.55;;;17.70;99.90;;;;;;4970939;28;20187;-68
2022/06/12 00:37:02;;;;;;;7.10;6.53;;;17.60;99.90;;;;;;4968732;28;20176;-68
2022/06/12 00:39:30;;;;;;;6.00;5.50;;;17.60;99.90;;;;;;4967243;28;20232;-68
2022/06/12 00:41:57;;;;;;;9.05;8.15;;;18.10;99.90;;;;;;4970996;28;20184;-68
2022/06/12 00:44:36;;;;;;;6.50;5.97;;;17.60;99.90;;;;;;4974449;28;20188;-68
2022/06/12 00:47:05;;;;;;;5.93;5.43;;;17.60;99.90;;;;;;4964866;28;20650;-68
2022/06/12 00:49:51;;;;;;;6.25;5.68;;;17.80;99.90;;;;;;4967016;28;20212;-68
2022/06/12 00:52:41;;;;;;;5.55;5.15;;;17.60;99.90;;;;;;4970623;28;20639;-69
2022/06/12 00:55:17;;;;;;;7.05;6.35;;;17.50;99.90;;;;;;4970434;28;20218;-69
2022/06/12 00:57:44;;;;;;;7.55;6.20;;;17.50;99.90;;;;;;4964555;28;20716;-68
2022/06/12 01:00:15;;;;;;;6.63;6.13;;;17.40;99.90;;;;;;4968220;28;20574;-69
2022/06/12 01:02:42;;;;;;;5.82;5.43;;;17.30;99.90;;;;;;4971758;28;20263;-68
2022/06/12 01:07:59;;;;;;;6.05;5.53;;;17.30;99.90;;;;;;4971895;28;20207;-68
2022/06/12 01:10:28;;;;;;;6.45;5.80;;;17.20;99.90;;;;;;4971095;28;20216;-68
2022/06/12 01:13:11;;;;;;;6.53;5.45;;;17.50;99.90;;;;;;4974640;28;20267;-69
2022/06/12 01:15:44;;;;;;;6.00;5.40;;;17.30;99.90;;;;;;4970062;28;20188;-68
2022/06/12 01:18:13;;;;;;;6.70;5.60;;;17.30;99.90;;;;;;4970728;28;20703;-68
2022/06/12 01:20:48;;;;;;;10.65;5.30;;;17.10;99.90;;;;;;4973684;28;20230;-68
2022/06/12 01:23:25;;;;;;;6.15;5.47;;;17.40;99.90;;;;;;4969672;28;20187;-68
2022/06/12 01:26:13;;;;;;;5.80;4.95;;;17.20;99.90;;;;;;4972772;28;20712;-68
2022/06/12 01:28:54;;;;;;;6.28;5.78;;;17.20;99.90;;;;;;4971102;28;20187;-68
2022/06/12 01:31:31;;;;;;;6.18;5.68;;;17.10;99.90;;;;;;4972527;28;20237;-68
2022/06/12 01:34:27;;;;;;;6.10;5.60;;;17.20;99.90;;;;;;4980300;28;20211;-68
2022/06/12 01:37:22;;;;;;;6.22;5.63;;;16.90;99.90;;;;;;4976460;28;20191;-68
2022/06/12 01:40:08;;;;;;;6.80;6.20;;;16.70;99.90;;;;;;4967785;28;20208;-68
2022/06/12 01:42:34;;;;;;;5.93;5.50;;;17.00;99.90;;;;;;4973024;28;20525;-68
2022/06/12 01:45:29;;;;;;;6.10;5.50;;;17.00;99.90;;;;;;4973703;28;20204;-69
2022/06/12 01:48:13;;;;;;;5.85;5.35;;;16.60;99.90;;;;;;4969145;28;20874;-68
2022/06/12 01:50:56;;;;;;;6.65;6.07;;;16.70;99.90;;;;;;4967458;28;20220;-68
2022/06/12 01:53:40;;;;;;;6.18;5.65;;;16.70;99.90;;;;;;4968610;28;20184;-68
2022/06/12 01:56:24;;;;;;;6.38;5.88;;;16.70;99.90;;;;;;4970089;28;20195;-68
2022/06/12 01:59:06;;;;;;;6.22;5.72;;;16.90;99.90;;;;;;4966881;28;20184;-68
2022/06/12 02:01:42;;;;;;;5.80;5.40;;;16.60;99.90;;;;;;4967530;28;20222;-68
2022/06/12 02:04:29;;;;;;;6.10;5.60;;;16.50;99.90;;;;;;4970353;28;20191;-68
2022/06/12 02:07:04;;;;;;;7.20;4.70;;;16.50;99.90;;;;;;4972025;28;20755;-68
2022/06/12 02:09:40;;;;;;;8.52;5.13;;;16.60;99.90;;;;;;4962741;28;20267;-67
2022/06/12 02:15:02;;;;;;;5.55;5.15;;;16.40;99.90;;;;;;4973467;28;20579;-68
2022/06/12 02:17:36;;;;;;;5.93;5.53;;;16.50;99.90;;;;;;4964512;28;20200;-68
2022/06/12 02:20:06;;;;;;;7.47;5.78;;;16.50;99.90;;;;;;4968632;28;20202;-68
2022/06/12 02:22:33;;;;;;;5.47;5.03;;;16.30;99.90;;;;;;4978634;28;20276;-68
2022/06/12 02:25:16;;;;;;;5.90;5.30;;;16.60;99.90;;;;;;4972961;28;20192;-69
2022/06/12 02:27:48;;;;;;;6.43;5.65;;;16.30;99.90;;;;;;4970381;28;20215;-68
2022/06/12 02:30:19;;;;;;;6.38;5.72;;;16.50;99.90;;;;;;4970147;28;20246;-69
2022/06/12 02:33:08;;;;;;;5.63;5.13;;;16.30;99.90;;;;;;4967457;28;20188;-68
2022/06/12 02:35:44;;;;;;;5.93;5.45;;;16.40;99.90;;;;;;4972236;28;20190;-68
2022/06/12 02:38:14;;;;;;;5.60;5.10;;;16.30;99.90;;;;;;4965346;28;20672;-68
2022/06/12 02:40:56;;;;;;;5.65;5.15;;;16.40;99.90;;;;;;4978767;28;20215;-68
2022/06/12 02:43:28;;;;;;;6.03;5.63;;;16.40;99.90;;;;;;4967331;28;20276;-68
2022/06/12 02:46:02;;;;;;;6.20;5.65;;;16.30;99.90;;;;;;4972123;28;20184;-68
2022/06/12 02:48:29;;;;;;;5.78;5.30;;;16.30;99.90;;;;;;4965400;28;20238;-68
2022/06/12 02:51:02;;;;;;;6.25;5.85;;;16.30;99.90;;;;;;4971163;28;20220;-68
2022/06/12 02:53:49;;;;;;;5.45;5.05;;;16.30;99.90;;;;;;4972361;28;20200;-68
2022/06/12 02:56:23;;;;;;;5.30;4.90;;;16.30;99.90;;;;;;4970040;28;20184;-68
2022/06/12 02:58:49;;;;;;;6.00;5.30;;;16.40;99.90;;;;;;4969252;28;20188;-69
2022/06/12 03:01:18;;;;;;;5.73;5.20;;;16.40;99.90;;;;;;4966545;28;20242;-68
2022/06/12 03:03:47;;;;;;;6.55;6.05;;;16.40;99.90;;;;;;4966953;28;20219;-69
2022/06/12 03:06:13;;;;;;;5.63;5.10;;;16.10;99.90;;;;;;4961064;28;20550;-69
2022/06/12 03:08:44;;;;;;;5.73;5.33;;;16.30;99.90;;;;;;4961380;28;20185;-67
2022/06/12 03:11:18;;;;;;;5.53;5.10;;;16.00;99.90;;;;;;4966605;28;20467;-68
2022/06/12 03:13:45;;;;;;;6.03;5.63;;;16.10;99.90;;;;;;4968206;28;20175;-68
2022/06/12 03:16:27;;;;;;;5.75;5.35;;;16.30;99.90;;;;;;4972881;28;20196;-68
2022/06/12 03:19:21;;;;;;;5.72;5.28;;;16.10;99.90;;;;;;4963039;28;20219;-68
2022/06/12 03:22:07;;;;;;;5.95;5.45;;;16.10;99.90;;;;;;4969523;28;20188;-69
2022/06/12 03:24:45;;;;;;;5.95;5.45;;;16.00;99.90;;;;;;4969757;28;20180;-68
2022/06/12 03:27:32;;;;;;;5.82;5.32;;;16.00;99.90;;;;;;4967139;28;20181;-67
2022/06/12 03:30:04;;;;;;;6.32;5.82;;;15.70;99.90;;;;;;4966902;28;20215;-67
2022/06/12 03:33:00;;;;;;;6.80;6.20;;;15.90;99.90;;;;;;4968915;28;20181;-68
2022/06/12 03:35:45;;;;;;;6.28;5.80;;;15.90;99.90;;;;;;4970925;28;20212;-67
2022/06/12 03:38:21;;;;;;;6.10;5.60;;;15.80;99.90;;;;;;4966343;28;20247;-68
2022/06/12 03:41:27;;;;;;;6.05;5.50;;;15.80;99.90;;;;;;4971244;28;20305;-68
2022/06/12 03:43:56;;;;;;;5.80;5.38;;;15.80;99.90;;;;;;4960187;28;20729;-68
2022/06/12 03:46:41;;;;;;;7.22;5.40;;;16.10;99.90;;;;;;4969799;28;20221;-68
2022/06/12 03:49:09;;;;;;;5.78;5.20;;;15.90;99.90;;;;;;4964425;28;20270;-68
2022/06/12 03:51:59;;;;;;;6.80;6.13;;;16.00;99.90;;;;;;4970263;28;20180;-68
2022/06/12 03:54:41;;;;;;;6.70;5.22;;;16.00;99.90;;;;;;4975113;28;20180;-68
2022/06/12 04:00:20;;;;;;;6.47;5.80;;;15.80;99.90;;;;;;4962078;28;20215;-68
2022/06/12 04:02:52;;;;;;;5.97;5.30;;;15.90;99.90;;;;;;4967588;28;20294;-68
2022/06/12 04:05:24;;;;;;;6.47;5.88;;;15.90;99.90;;;;;;4967278;28;20194;-68
2022/06/12 04:07:54;;;;;;;5.95;5.35;;;16.10;99.90;;;;;;4966966;28;20196;-68
2022/06/12 04:10:23;;;;;;;6.55;6.05;;;16.00;99.90;;;;;;4962718;28;20221;-68
2022/06/12 04:12:50;;;;;;;6.85;6.15;;;16.10;99.90;;;;;;4970061;28;20271;-68
2022/06/12 04:15:22;;;;;;;5.60;5.20;;;16.10;99.90;;;;;;4971049;28;20230;-68
2022/06/12 04:17:48;;;;;;;6.32;5.70;;;15.90;99.90;;;;;;4970770;28;20219;-68
2022/06/12 04:20:23;;;;;;;7.55;5.80;;;16.10;99.90;;;;;;4967654;28;20192;-68
2022/06/12 04:23:03;;;;;;;6.85;5.60;;;16.20;99.90;;;;;;4973677;28;20205;-68
2022/06/12 04:25:32;;;;;;;6.03;5.53;;;16.40;99.90;;;;;;4969453;28;20914;-68
2022/06/12 04:27:57;;;;;;;6.25;5.75;;;16.30;99.90;;;;;;4962753;28;20282;-68
2022/06/12 04:30:35;;;;;;;6.20;5.70;;;16.40;99.90;;;;;;4964062;28;20208;-68
2022/06/12 04:33:15;;;;;;;6.57;5.97;;;16.30;99.90;;;;;;4968646;28;22856;-68
2022/06/12 04:35:49;;;;;;;6.65;6.00;;;16.30;99.90;;;;;;4975534;28;20187;-68
2022/06/12 04:38:15;;;;;;;5.90;5.47;;;16.40;99.90;;;;;;4969315;28;20677;-68
2022/06/12 04:40:41;;;;;;;6.07;5.57;;;16.60;99.90;;;;;;4972918;28;20212;-68
2022/06/12 04:43:07;;;;;;;8.40;6.27;;;16.50;99.90;;;;;;4974577;28;20195;-67
2022/06/12 04:45:32;;;;;;;7.10;6.27;;;16.50;99.90;;;;;;4974544;28;20271;-68
2022/06/12 04:47:58;;;;;;;6.10;5.60;;;16.60;99.90;;;;;;4969292;28;20231;-68
2022/06/12 04:50:24;;;;;;;6.33;5.83;;;16.60;99.90;;;;;;4973409;28;20240;-69
2022/06/12 04:52:50;;;;;;;5.60;5.13;;;16.90;99.90;;;;;;4973425;28;20447;-69
2022/06/12 04:55:16;;;;;;;9.07;6.53;;;16.90;99.90;;;;;;4974453;28;20188;-68
2022/06/12 04:57:41;;;;;;;6.68;5.95;;;17.10;99.90;;;;;;4972053;28;20180;-68
2022/06/12 05:00:08;;;;;;;6.73;5.57;;;17.10;99.90;;;;;;4974008;28;20211;-68
2022/06/12 05:02:34;;;;;;;5.88;5.28;;;17.40;99.90;;;;;;4971933;28;20231;-68
2022/06/12 05:04:59;;;;;;;5.73;5.20;;;17.20;99.90;;;;;;4980420;28;20196;-68
2022/06/12 05:07:25;;;;;;;5.90;4.93;;;17.40;99.90;;;;;;4977133;28;20481;-69
2022/06/12 05:09:51;;;;;;;6.30;5.67;;;17.40;99.90;;;;;;4973522;28;20223;-67
2022/06/12 05:12:17;;;;;;;5.90;5.30;;;17.40;99.90;;;;;;4973437;28;20454;-67
2022/06/12 05:14:42;;;;;;;6.30;5.70;;;17.60;99.90;;;;;;4971935;28;20239;-65
2022/06/12 05:17:15;;;;;;;6.40;5.90;;;17.80;99.90;;;;;;4967997;28;20275;-67
2022/06/12 05:19:44;;;;;;;6.10;5.60;;;18.00;99.90;;;;;;4974111;28;20466;-71
2022/06/12 05:22:10;;;;;;;6.20;5.65;;;18.10;99.90;;;;;;4975858;28;20189;-71
2022/06/12 05:24:37;;;;;;;5.90;5.30;;;18.30;99.90;;;;;;4957609;28;20560;-73
2022/06/12 05:27:08;;;;;;;6.20;5.80;;;18.40;99.90;;;;;;4961549;28;20275;-73
2022/06/12 05:29:37;;;;;;;6.03;5.53;;;18.50;99.90;;;;;;4973578;28;20208;-68
2022/06/12 05:32:04;;;;;;;6.20;5.55;;;18.60;99.90;;;;;;4970834;28;20177;-66
2022/06/12 05:34:30;;;;;;;5.57;5.18;;;18.80;99.90;;;;;;4974306;28;20176;-68
2022/06/12 05:36:57;;;;;;;6.05;5.45;;;19.00;99.90;;;;;;4972379;28;20212;-68
2022/06/12 05:39:24;;;;;;;6.05;5.53;;;19.10;99.90;;;;;;4971472;28;20347;-69
2022/06/12 05:41:50;;;;;;;5.60;5.10;;;19.30;99.90;;;;;;4969101;28;20216;-69
2022/06/12 05:44:16;;;;;;;5.93;5.45;;;19.40;99.90;;;;;;4963078;28;20231;-68
2022/06/12 05:46:43;;;;;;;5.72;5.22;;;19.50;99.90;;;;;;4971824;28;20188;-67
2022/06/12 05:49:09;;;;;;;5.93;5.25;;;19.70;99.90;;;;;;4971440;28;20282;-68
2022/06/12 05:51:35;;;;;;;8.18;5.43;;;20.10;99.90;;;;;;4974036;28;20184;-70
2022/06/12 05:54:01;;;;;;;6.20;5.60;;;19.90;99.90;;;;;;4973732;28;20199;-69
2022/06/12 05:56:29;;;;;;;5.40;5.00;;;20.00;99.90;;;;;;4971549;28;20646;-69
2022/06/12 05:58:55;;;;;;;5.82;5.32;;;20.20;99.90;;;;;;4968491;28;20467;-69
2022/06/12 06:01:22;;;;;;;6.00;5.50;;;20.40;99.90;;;;;;4973100;28;20245;-75
2022/06/12 06:03:49;;;;;;;5.53;5.13;;;20.60;99.90;;;;;;4964784;28;20204;-75
2022/06/12 06:06:20;;;;;;;6.00;5.50;;;20.70;99.90;;;;;;4972804;28;20194;-72
2022/06/12 06:08:46;;;;;;;5.30;4.90;;;20.80;99.90;;;;;;4971048;28;20199;-72
2022/06/12 06:11:12;;;;;;;5.53;5.13;;;20.90;99.90;;;;;;4972651;28;20208;-70
2022/06/12 06:13:37;;;;;;;5.10;4.80;;;21.00;99.90;;;;;;4964808;28;20696;-71
2022/06/12 06:16:03;;;;;;;5.40;5.00;;;21.00;99.80;;;;;;4967084;28;20236;-73
2022/06/12 06:18:29;;;;;;;5.82;5.30;;;21.10;99.70;;;;;;4963643;28;20180;-70
2022/06/12 06:20:55;;;;;;;6.30;5.70;;;21.20;99.70;;;;;;4966468;28;20211;-69
2022/06/12 06:23:25;;;;;;;5.37;4.97;;;21.30;99.40;;;;;;4973581;28;20196;-69
2022/06/12 06:25:50;;;;;;;6.60;5.35;;;21.40;99.30;;;;;;4971325;28;20436;-69
2022/06/12 06:28:16;;;;;;;5.90;5.40;;;21.80;98.90;;;;;;4958710;28;20199;-68
2022/06/12 06:30:43;;;;;;;6.20;5.60;;;22.00;98.30;;;;;;4966240;28;20216;-69
2022/06/12 06:33:09;;;;;;;5.67;5.23;;;22.20;97.80;;;;;;4966160;28;20447;-69
2022/06/12 06:35:36;;;;;;;5.43;5.03;;;22.30;97.40;;;;;;4970127;28;20539;-68
2022/06/12 06:38:02;;;;;;;6.20;5.63;;;22.30;97.00;;;;;;4971989;28;21065;-74
2022/06/12 06:40:30;;;;;;;6.20;5.60;;;22.30;96.70;;;;;;4967682;28;20464;-76
2022/06/12 06:42:56;;;;;;;5.80;5.30;;;22.40;96.80;;;;;;4972361;28;20447;-69
2022/06/12 06:48:09;;;;;;;6.23;5.63;;;22.50;96.50;;;;;;4969058;28;20222;-71
2022/06/12 06:50:36;;;;;;;6.00;5.40;;;22.60;96.20;;;;;;4971251;28;20494;-70
2022/06/12 06:53:02;;;;;;;7.30;6.70;;;22.80;96.10;;;;;;4971240;28;20443;-73
2022/06/12 06:55:29;;;;;;;7.90;5.30;;;22.90;95.70;;;;;;4969511;28;20471;-69
2022/06/12 06:57:57;;;;;;;5.20;4.80;;;23.40;95.70;;;;;;4970137;28;20424;-69
2022/06/12 07:00:27;;;;;;;6.40;5.70;;;23.30;95.10;;;;;;4970901;28;20447;-69
2022/06/12 07:02:52;;;;;;;5.67;5.23;;;23.70;94.70;;;;;;4967816;28;20455;-70
2022/06/12 07:05:19;;;;;;;5.20;4.70;;;24.10;93.50;;;;;;4960134;28;20448;-72
2022/06/12 07:07:45;;;;;;;5.67;5.20;;;24.60;92.70;;;;;;4971542;28;20184;-69
2022/06/12 07:10:16;;;;;;;5.57;5.07;;;25.90;90.70;;;;;;4970950;28;20480;-68
2022/06/12 07:12:42;;;;;;;6.00;5.50;;;27.30;87.00;;;;;;4967220;28;20802;-70
2022/06/12 07:15:08;;;;;;;7.73;4.97;;;30.10;77.40;;;;;;4971202;28;20479;-70
2022/06/12 07:17:34;;;;;;;4.43;4.07;;;31.70;68.70;;;;;;4966672;28;20446;-71
2022/06/12 07:19:59;;;;;;;4.73;4.33;;;34.90;60.00;;;;;;4971077;28;20555;-70
2022/06/12 07:22:25;;;;;;;4.70;4.30;;;35.80;54.20;;;;;;4968752;28;20280;-70
2022/06/12 07:24:51;;;;;;;5.30;4.90;;;36.30;50.70;;;;;;4971421;28;20199;-71
2022/06/12 07:27:17;;;;;;;4.73;4.43;;;38.30;47.80;;;;;;4968234;28;20184;-70
2022/06/12 07:29:43;;;;;;;5.23;4.73;;;38.60;45.10;;;;;;4967515;28;20279;-70
2022/06/12 07:32:09;;;;;;;4.17;3.83;;;40.30;43.10;;;;;;4962947;28;20448;-71
2022/06/12 07:34:35;;;;;;;5.00;4.60;;;41.60;40.60;;;;;;4953737;28;20217;-70
2022/06/12 07:37:01;;;;;;;5.70;5.20;;;42.50;38.00;;;;;;4971575;28;20477;-70
2022/06/12 07:39:29;;;;;;;5.23;4.80;;;42.60;36.70;;;;;;4971954;28;20308;-70
2022/06/12 07:41:56;;;;;;;5.60;4.97;;;39.50;38.40;;;;;;4968178;28;20440;-70
2022/06/12 07:44:26;;;;;;;4.73;4.33;;;39.80;38.80;;;;;;4966101;28;20509;-70
2022/06/12 07:46:54;;;;;;;4.33;4.03;;;40.70;38.00;;;;;;4971080;28;20514;-70
2022/06/12 07:49:20;;;;;;;4.83;4.43;;;40.50;37.90;;;;;;4970603;28;20971;-70
2022/06/12 07:51:46;;;;;;;4.63;4.30;;;40.30;37.70;;;;;;4968540;28;20441;-70
2022/06/12 07:54:12;;;;;;;4.90;4.30;;;42.40;36.20;;;;;;4967861;28;21009;-70
2022/06/12 07:56:39;;;;;;;5.00;4.60;;;42.30;34.80;;;;;;4958980;28;20439;-70
2022/06/12 07:59:07;;;;;;;4.70;4.40;;;42.60;34.50;;;;;;4971560;28;20208;-74
2022/06/12 08:01:35;;;;;;;5.53;4.30;;;42.30;34.80;;;;;;4963275;28;20459;-71
2022/06/12 08:04:00;;;;;;;4.30;4.00;;;42.90;33.70;;;;;;4970505;28;20816;-70
2022/06/12 08:06:27;;;;;;;4.67;4.37;;;43.00;33.00;;;;;;4969670;28;20443;-71
2022/06/12 08:08:53;;;;;;;4.50;4.10;;;43.70;32.80;;;;;;4970862;28;20184;-71
2022/06/12 08:11:21;;;;;;;4.63;4.20;;;43.10;32.80;;;;;;4965047;28;20848;-71
2022/06/12 08:13:47;;;;;;;4.20;3.80;;;42.10;33.80;;;;;;4964709;28;20880;-71
2022/06/12 08:16:13;;;;;;;5.43;5.00;;;42.40;33.40;;;;;;4966003;28;20790;-73
2022/06/12 08:18:39;;;;;;;5.13;4.80;;;43.30;32.70;;;;;;4969279;28;20561;-70
2022/06/12 08:21:09;;;;;;;5.03;4.63;;;43.90;32.00;;;;;;4968788;28;20480;-71
2022/06/12 08:23:40;;;;;;;4.30;4.10;;;43.00;32.30;;;;;;4967869;28;20645;-71
2022/06/12 08:26:20;;;;;;;4.33;4.03;;;42.30;33.60;;;;;;4971066;28;20812;-74
2022/06/12 08:28:53;;;;;;;4.80;4.37;;;42.00;33.20;;;;;;4970664;28;20498;-74
2022/06/12 08:31:26;;;;;;;4.60;4.30;;;42.10;32.40;;;;;;4965342;28;20974;-76
2022/06/12 08:33:56;;;;;;;4.73;4.30;;;42.00;33.00;;;;;;4965053;28;20435;-71
2022/06/12 08:36:22;;;;;;;4.87;4.47;;;41.40;33.50;;;;;;4964377;28;20952;-71
2022/06/12 08:38:49;;;;;;;6.93;4.47;;;41.60;33.60;;;;;;4970555;28;20435;-70
2022/06/12 08:41:42;;;;;;;4.30;4.00;;;42.20;32.90;;;;;;4968880;28;20283;-72
2022/06/12 08:44:26;;;;;;;4.60;4.20;;;42.90;31.70;;;;;;4971820;28;20439;-71
2022/06/12 08:46:59;;;;;;;4.17;3.77;;;43.70;30.90;;;;;;4962812;28;20949;-71
2022/06/12 08:49:43;;;;;;;4.10;3.80;;;43.30;30.90;;;;;;4970012;28;20475;-72
2022/06/12 08:52:17;;;;;;;3.80;3.50;;;43.70;30.10;;;;;;4963431;28;20424;-71
2022/06/12 08:55:02;;;;;;;3.80;3.50;;;42.20;31.00;;;;;;4969009;28;20813;-71
2022/06/12 08:57:36;;;;;;;3.70;3.40;;;42.10;30.70;;;;;;4963170;28;20518;-73
2022/06/12 09:00:06;;;;;;;4.30;3.60;;;40.30;32.30;;;;;;4959027;28;21079;-70
2022/06/12 09:02:36;;;;;;;4.00;3.70;;;40.70;31.40;;;;;;4969442;28;20446;-72
2022/06/12 09:05:06;;;;;;;4.77;3.40;;;39.90;32.70;;;;;;4963545;28;20498;-72
2022/06/12 09:07:50;;;;;;;3.90;3.60;;;39.70;31.60;;;;;;4972516;28;20435;-71
2022/06/12 09:10:41;;;;;;;3.63;3.33;;;38.80;34.10;;;;;;4960721;28;20480;-72
2022/06/12 09:13:17;;;;;;;3.90;3.70;;;39.20;33.60;;;;;;4968695;28;20475;-71
2022/06/12 09:15:55;;;;;;;3.77;3.47;;;40.50;31.70;;;;;;4970856;28;20446;-74
2022/06/12 09:18:35;;;;;;;4.10;3.80;;;40.40;31.80;;;;;;4960447;28;20459;-72
2022/06/12 09:21:04;;;;;;;3.70;3.50;;;41.50;31.50;;;;;;4974188;28;20509;-71
2022/06/12 09:23:52;;;;;;;4.33;4.03;;;41.80;30.90;;;;;;4974299;28;20442;-71
2022/06/12 09:26:24;;;;;;;4.07;3.77;;;40.40;31.20;;;;;;4972009;28;20439;-75
2022/06/12 09:29:15;;;;;;;4.27;3.87;;;41.80;31.50;;;;;;4973341;28;20446;-74
2022/06/12 09:31:41;;;;;;;3.90;3.60;;;41.80;30.90;;;;;;4969012;28;20428;-71
2022/06/12 09:34:29;;;;;;;4.10;3.90;;;42.80;30.20;;;;;;4973195;28;20443;-72
2022/06/12 09:38:18;;;;;;;3.70;3.47;;;42.60;29.80;;;;;;4963807;28;20781;-71
2022/06/12 09:40:11;;;;;;;4.20;3.80;;;42.00;29.80;;;;;;4969350;28;20507;-74
2022/06/12 09:43:02;;;;;;;3.97;3.77;;;42.40;29.90;;;;;;4971252;28;20534;-71
2022/06/12 09:45:50;;;;;;;4.30;3.53;;;41.40;29.70;;;;;;4971702;28;20901;-71
2022/06/12 09:48:34;;;;;;;4.30;3.93;;;41.20;31.30;;;;;;4971730;28;20431;-71
2022/06/12 09:51:09;;;;;;;3.97;3.67;;;42.00;30.40;;;;;;4965718;28;20467;-72
2022/06/12 09:53:41;;;;;;;4.13;3.83;;;42.60;30.00;;;;;;4959232;28;20813;-71
2022/06/12 09:56:18;;;;;;;3.67;3.47;;;40.30;29.90;;;;;;4972936;28;20941;-71
2022/06/12 09:58:52;;;;;;;4.37;4.07;;;37.90;32.80;;;;;;4970987;28;20423;-73
2022/06/12 10:01:23;;;;;;;4.10;3.80;;;38.00;33.90;;;;;;4973656;28;20435;-72
2022/06/12 10:03:57;;;;;;;3.90;3.60;;;39.50;33.10;;;;;;4971957;28;20459;-71
2022/06/12 10:06:35;;;;;;;4.00;3.70;;;40.70;32.30;;;;;;4973444;28;20435;-70
2022/06/12 10:09:24;;;;;;;4.67;4.33;;;41.50;30.60;;;;;;4972427;28;20474;-73
2022/06/12 10:12:05;;;;;;;4.53;4.13;;;42.20;30.10;;;;;;4971325;28;20435;-72
2022/06/12 10:14:33;;;;;;;4.10;3.70;;;42.80;29.70;;;;;;4969782;28;20474;-72
2022/06/12 10:17:22;;;;;;;3.80;3.60;;;43.30;29.20;;;;;;4972288;28;20503;-72
2022/06/12 10:20:00;;;;;;;5.13;3.87;;;43.80;29.10;;;;;;4972911;28;21436;-72
2022/06/12 10:22:38;;;;;;;4.00;3.70;;;43.60;28.60;;;;;;4973327;28;20428;-72
2022/06/12 10:25:07;;;;;;;4.30;3.90;;;43.50;28.20;;;;;;4973135;28;20494;-71
2022/06/12 10:27:42;;;;;;;4.10;3.80;;;42.60;28.60;;;;;;4972895;28;20522;-71
2022/06/12 10:30:31;;;;;;;7.10;4.37;;;40.70;29.60;;;;;;4973003;28;20545;-71
2022/06/12 10:33:07;;;;;;;4.73;4.23;;;40.90;30.90;;;;;;4971995;28;20462;-72
2022/06/12 10:35:45;;;;;;;4.40;4.20;;;39.90;31.50;;;;;;4972779;28;20486;-70
2022/06/12 10:38:11;;;;;;;5.07;4.67;;;38.20;33.70;;;;;;4969132;28;20435;-72
2022/06/12 10:40:36;;;;;;;4.37;3.97;;;39.10;32.90;;;;;;4961936;28;20973;-71
2022/06/12 10:43:08;;;;;;;3.90;3.63;;;38.70;32.40;;;;;;4971748;28;20848;-71
2022/06/12 10:45:37;;;;;;;3.93;3.63;;;38.80;32.90;;;;;;4961557;28;20242;-74
2022/06/12 10:48:24;;;;;;;5.00;4.37;;;38.50;32.60;;;;;;4970568;28;20458;-70
2022/06/12 10:50:54;;;;;;;4.90;4.37;;;36.90;34.60;;;;;;4969650;28;20521;-70
2022/06/12 10:53:23;;;;;;;5.20;4.70;;;35.80;36.50;;;;;;4967977;28;20958;-69
2022/06/12 10:55:57;;;;;;;4.37;4.07;;;34.70;37.80;;;;;;4971745;28;20459;-70
2022/06/12 10:58:41;;;;;;;5.00;4.50;;;33.40;40.40;;;;;;4968256;28;20833;-74
2022/06/12 11:01:38;;;;;;;5.60;4.70;;;33.40;41.90;;;;;;4963717;28;20454;-68
2022/06/12 11:04:25;;;;;;;4.73;4.33;;;33.70;40.80;;;;;;4968261;28;20465;-68
2022/06/12 11:07:11;;;;;;;4.93;4.43;;;33.30;41.00;;;;;;4966722;28;20439;-68
2022/06/12 11:10:05;;;;;;;3.80;3.50;;;34.20;40.30;;;;;;4968072;28;21001;-68
2022/06/12 11:13:09;;;;;;;5.47;4.30;;;35.40;38.90;;;;;;4968266;28;20423;-68
2022/06/12 11:15:53;;;;;;;4.03;3.70;;;35.80;38.30;;;;;;4973459;28;20423;-73
2022/06/12 11:18:30;;;;;;;4.40;4.00;;;35.50;37.70;;;;;;4970967;28;20432;-73
2022/06/12 11:21:37;;;;;;;4.70;4.30;;;36.50;36.90;;;;;;4957807;28;20452;-72
2022/06/12 11:24:12;;;;;;;4.50;4.20;;;37.20;35.40;;;;;;4951546;28;20436;-72
2022/06/12 11:26:59;;;;;;;4.83;4.33;;;37.80;34.80;;;;;;4966313;28;20435;-73
2022/06/12 11:29:30;;;;;;;4.00;3.70;;;37.50;35.10;;;;;;4958430;28;20452;-72
2022/06/12 11:32:20;;;;;;;4.27;3.97;;;37.40;35.30;;;;;;4964729;28;20432;-73
2022/06/12 11:35:22;;;;;;;4.40;4.00;;;37.40;35.40;;;;;;4971880;28;20442;-72
2022/06/12 11:38:10;;;;;;;5.13;4.60;;;37.50;35.10;;;;;;4971159;28;20446;-73
2022/06/12 11:40:46;;;;;;;4.30;4.00;;;38.00;35.10;;;;;;4971862;28;20558;-74
2022/06/12 11:43:30;;;;;;;4.40;4.00;;;37.10;35.70;;;;;;4971453;28;20539;-75
2022/06/12 11:46:25;;;;;;;4.10;3.80;;;37.50;35.40;;;;;;4970271;28;20522;-74
2022/06/12 11:49:10;;;;;;;4.37;3.97;;;37.30;35.30;;;;;;4975765;28;20454;-74
2022/06/12 11:52:07;;;;;;;4.20;3.80;;;36.40;36.30;;;;;;4971121;28;20450;-72
2022/06/12 11:54:51;;;;;;;3.93;3.63;;;35.00;38.10;;;;;;4966221;28;20503;-70
2022/06/12 11:57:42;;;;;;;4.27;3.97;;;34.00;39.70;;;;;;4965999;28;20440;-71
2022/06/12 12:00:13;;;;;;;4.77;4.27;;;33.10;41.30;;;;;;4967716;28;20457;-72
2022/06/12 12:03:12;;;;;;;4.10;3.80;;;32.20;42.50;;;;;;4968560;28;20868;-72
2022/06/12 12:06:14;;;;;;;3.87;3.57;;;31.90;42.90;;;;;;4971084;28;20448;-69
2022/06/12 12:08:42;;;;;;;4.50;4.10;;;32.00;43.70;;;;;;4971101;28;20440;-71
2022/06/12 12:11:23;;;;;;;4.03;3.70;;;32.00;44.20;;;;;;4969019;28;20470;-73
2022/06/12 12:13:54;;;;;;;4.30;4.00;;;32.10;44.10;;;;;;4970585;28;20449;-72
2022/06/12 12:16:19;;;;;;;6.33;5.80;;;32.10;43.30;;;;;;4968603;28;20503;-72
2022/06/12 12:18:54;;;;;;;4.17;3.87;;;32.10;43.70;;;;;;4971184;28;20665;-70
2022/06/12 12:21:48;;;;;;;4.70;4.30;;;32.00;43.60;;;;;;4971431;28;20725;-71
2022/06/12 12:24:19;;;;;;;3.90;3.60;;;32.00;43.30;;;;;;4970242;28;20571;-71
2022/06/12 12:26:45;;;;;;;4.43;4.03;;;31.70;44.20;;;;;;4958618;28;20443;-71
2022/06/12 12:29:22;;;;;;;5.20;4.70;;;31.30;43.60;;;;;;4972091;28;20777;-72
2022/06/12 12:31:49;;;;;;;4.33;4.03;;;30.90;45.50;;;;;;4965999;28;20440;-72
2022/06/12 12:34:16;;;;;;;4.10;3.80;;;30.40;45.40;;;;;;4966347;28;20466;-69
2022/06/12 12:42:25;;;;;;;5.00;4.00;;;30.50;45.90;;;;;;4968317;28;20502;-68
2022/06/12 12:44:52;;;;;;;7.37;6.77;;;30.50;46.50;;;;;;4967151;28;20443;-68
2022/06/12 12:47:27;;;;;;;3.93;3.63;;;30.50;47.00;;;;;;4968157;28;20535;-73
2022/06/12 12:50:13;;;;;;;4.30;3.87;;;30.50;46.20;;;;;;4969564;28;20485;-72
2022/06/12 12:52:53;;;;;;;3.57;3.27;;;30.30;46.80;;;;;;4970424;28;20970;-68
2022/06/12 12:55:21;;;;;;;4.40;4.00;;;30.40;47.00;;;;;;4967594;28;20443;-68
2022/06/12 12:57:47;;;;;;;3.93;3.63;;;30.00;46.80;;;;;;4972143;28;20490;-72
2022/06/12 13:00:16;;;;;;;5.23;4.67;;;29.90;47.60;;;;;;4971287;28;20550;-69
2022/06/12 13:02:56;;;;;;;4.20;3.90;;;30.10;48.00;;;;;;4962886;28;20439;-72
2022/06/12 13:05:34;;;;;;;3.80;3.50;;;30.20;48.30;;;;;;4971943;28;20442;-71
2022/06/12 13:08:41;;;;;;;3.87;3.57;;;29.90;47.20;;;;;;4971174;28;20432;-71
2022/06/12 13:11:37;;;;;;;4.17;3.87;;;30.00;47.50;;;;;;4971345;28;20471;-71
2022/06/12 13:14:08;;;;;;;4.00;3.70;;;30.10;47.50;;;;;;4971172;28;20472;-74
2022/06/12 13:16:59;;;;;;;5.73;3.70;;;30.10;47.40;;;;;;4970881;28;20562;-72
2022/06/12 13:19:52;;;;;;;3.67;3.37;;;30.10;47.90;;;;;;4972663;28;20529;-71
2022/06/12 13:22:35;;;;;;;4.70;4.20;;;29.80;48.30;;;;;;4967595;28;20439;-70
2022/06/12 13:25:19;;;;;;;4.40;4.00;;;29.70;49.10;;;;;;4967053;28;20443;-70
2022/06/12 13:27:53;;;;;;;4.50;4.10;;;29.50;49.20;;;;;;4972375;28;20465;-72
2022/06/12 13:30:32;;;;;;;3.60;3.40;;;29.40;49.70;;;;;;4973559;28;21024;-71
2022/06/12 13:33:24;;;;;;;6.10;5.60;;;29.40;49.50;;;;;;4963641;28;20452;-72
2022/06/12 13:36:06;;;;;;;3.80;3.50;;;29.40;49.80;;;;;;4962035;28;21092;-70
2022/06/12 13:38:35;;;;;;;4.30;4.00;;;29.50;49.60;;;;;;4962906;28;20437;-70
2022/06/12 13:41:08;;;;;;;4.60;4.20;;;29.40;49.90;;;;;;4971724;28;20577;-71